createdAt,value
2023-04-27T00:01:41.354Z,100461.51
2023-04-27T00:05:09.359Z,100464.79
2023-04-27T00:08:37.053Z,100467.02
2023-04-27T00:12:04.790Z,100463.66
2023-04-27T00:15:32.665Z,100465.33
2023-04-27T00:19:00.588Z,100461.70
2023-04-27T00:22:28.533Z,100464.34
2023-04-27T00:25:56.400Z,100463.30
2023-04-27T00:29:24.130Z,100464.73
2023-04-27T00:32:52.071Z,100462.50
2023-04-27T00:36:19.888Z,100464.80
2023-04-27T00:39:47.753Z,100466.92
2023-04-27T00:43:15.581Z,100463.60
2023-04-27T00:46:43.463Z,100464.40
2023-04-27T00:50:11.223Z,100462.73
2023-04-27T00:53:39.105Z,100464.40
2023-04-27T00:57:06.922Z,100467.03
2023-04-27T01:00:16.641Z,100465.91
2023-04-27T01:03:44.694Z,100466.39
2023-04-27T01:06:56.533Z,100469.09
2023-04-27T01:10:04.703Z,100472.56
2023-04-27T01:13:13.452Z,100479.20
2023-04-27T01:16:41.220Z,100488.05
2023-04-27T01:20:08.888Z,100488.88
2023-04-27T01:23:36.504Z,100482.95
2023-04-27T01:27:04.345Z,100486.73
2023-04-27T01:30:31.978Z,100491.62
2023-04-27T01:33:59.886Z,100493.95
2023-04-27T01:37:27.518Z,100491.79
2023-04-27T01:40:55.379Z,100489.20
2023-04-27T01:43:41.040Z,100487.60
2023-04-27T01:46:49.904Z,100490.64
2023-04-27T01:49:58.663Z,100490.26
2023-04-27T01:53:07.468Z,100491.11
2023-04-27T01:56:35.244Z,100494.02
2023-04-27T02:00:03.438Z,100496.46
2023-04-27T02:03:31.497Z,100494.73
2023-04-27T02:06:59.360Z,100498.79
2023-04-27T02:10:26.961Z,100498.70
2023-04-27T02:13:55.233Z,100500.35
2023-04-27T02:16:51.905Z,100499.75
2023-04-27T02:20:00.853Z,100502.95
2023-04-27T02:23:09.559Z,100512.70
2023-04-27T02:26:37.498Z,100514.39
2023-04-27T02:30:05.294Z,100510.45
2023-04-27T02:33:33.031Z,100509.77
2023-04-27T02:37:00.971Z,100515.05
2023-04-27T02:40:29.036Z,100519.02
2023-04-27T02:43:56.925Z,100522.94
2023-04-27T02:47:24.820Z,100523.05
2023-04-27T02:50:33.067Z,100525.77
2023-04-27T02:54:00.913Z,100523.48
2023-04-27T02:57:28.853Z,100527.05
2023-04-27T03:00:56.724Z,100533.66
2023-04-27T03:04:24.523Z,100536.66
2023-04-27T03:07:36.329Z,100537.30
2023-04-27T03:10:45.189Z,100538.78
2023-04-27T03:14:13.055Z,100536.70
2023-04-27T03:17:40.795Z,100539.55
2023-04-27T03:21:08.503Z,100539.73
2023-04-27T03:24:36.614Z,100541.27
2023-04-27T03:27:48.156Z,100547.69
2023-04-27T03:31:16.005Z,100554.30
2023-04-27T03:34:43.681Z,100561.69
2023-04-27T03:38:11.553Z,100567.34
2023-04-27T03:41:23.390Z,100567.12
2023-04-27T03:44:35.103Z,100574.55
2023-04-27T03:48:02.845Z,100581.16
2023-04-27T03:51:12.614Z,100583.36
2023-04-27T03:54:20.784Z,100588.98
2023-04-27T03:57:09.902Z,100591.92
2023-04-27T04:00:38.805Z,100594.81
2023-04-27T04:04:06.587Z,100599.07
2023-04-27T04:07:17.999Z,100601.58
2023-04-27T04:10:45.741Z,100596.48
2023-04-27T04:13:36.025Z,100597.89
2023-04-27T04:16:28.041Z,100599.95
2023-04-27T04:19:55.619Z,100597.04
2023-04-27T04:23:23.496Z,100593.98
2023-04-27T04:26:51.213Z,100594.73
2023-04-27T04:30:19.025Z,100602.77
2023-04-27T04:33:27.915Z,100607.61
2023-04-27T04:36:36.671Z,100612.46
2023-04-27T04:40:05.241Z,100611.48
2023-04-27T04:43:13.224Z,100605.03
2023-04-27T04:46:40.787Z,100609.44
2023-04-27T04:50:08.449Z,100615.97
2023-04-27T04:53:36.269Z,100617.67
2023-04-27T04:57:04.221Z,100623.18
2023-04-27T05:00:32.976Z,100636.40
2023-04-27T05:04:01.582Z,100644.58
2023-04-27T05:07:09.575Z,100652.88
2023-04-27T05:10:32.961Z,100650.23
2023-04-27T05:14:04.119Z,100650.51
2023-04-27T05:17:32.039Z,100659.64
2023-04-27T05:20:59.901Z,100666.51
2023-04-27T05:24:09.710Z,100666.88
2023-04-27T05:27:37.715Z,100666.28
2023-04-27T05:31:05.731Z,100669.84
2023-04-27T05:34:33.674Z,100674.38
2023-04-27T05:37:45.283Z,100669.72
2023-04-27T05:41:13.134Z,100667.17
2023-04-27T05:44:41.045Z,100669.98
2023-04-27T05:47:56.215Z,100675.98
2023-04-27T05:51:23.863Z,100682.46
2023-04-27T05:54:51.749Z,100690.35
2023-04-27T05:58:19.620Z,100692.57
2023-04-27T06:01:27.948Z,100692.41
2023-04-27T06:04:56.053Z,100698.67
2023-04-27T06:08:23.812Z,100696.17
2023-04-27T06:11:32.828Z,100698.48
2023-04-27T06:15:00.683Z,100703.83
2023-04-27T06:18:28.498Z,100708.02
2023-04-27T06:21:56.299Z,100713.08
2023-04-27T06:25:26.653Z,100710.23
2023-04-27T06:28:51.858Z,100714.36
2023-04-27T06:32:19.685Z,100712.16
2023-04-27T06:35:29.380Z,100711.40
2023-04-27T06:38:57.088Z,100715.30
2023-04-27T06:42:24.730Z,100719.01
2023-04-27T06:45:52.503Z,100720.63
2023-04-27T06:49:20.228Z,100725.38
2023-04-27T06:52:47.914Z,100725.62
2023-04-27T06:56:15.860Z,100725.60
2023-04-27T06:59:23.860Z,100723.74
2023-04-27T07:02:32.641Z,100725.16
2023-04-27T07:06:00.467Z,100719.69
2023-04-27T07:08:50.203Z,100723.67
2023-04-27T07:12:06.401Z,100729.48
2023-04-27T07:15:16.135Z,100728.38
2023-04-27T07:18:25.240Z,100725.40
2023-04-27T07:21:35.008Z,100731.35
2023-04-27T07:24:44.806Z,100730.65
2023-04-27T07:27:53.642Z,100732.96
2023-04-27T07:31:09.373Z,100730.09
2023-04-27T07:34:18.161Z,100736.95
2023-04-27T07:37:41.998Z,100737.80
2023-04-27T07:40:31.438Z,100737.59
2023-04-27T07:43:39.910Z,100740.31
2023-04-27T07:47:08.102Z,100738.32
2023-04-27T07:50:35.925Z,100740.39
2023-04-27T07:54:03.523Z,100745.21
2023-04-27T07:57:31.416Z,100749.64
2023-04-27T08:00:59.087Z,100745.12
2023-04-27T08:04:26.995Z,100745.92
2023-04-27T08:07:54.898Z,100755.29
2023-04-27T08:11:02.983Z,100748.10
2023-04-27T08:14:18.789Z,100753.15
2023-04-27T08:17:46.655Z,100755.30
2023-04-27T08:21:14.372Z,100753.45
2023-04-27T08:24:23.196Z,100751.04
2023-04-27T08:27:28.139Z,100752.53
2023-04-27T08:30:37.091Z,100753.21
2023-04-27T08:33:45.641Z,100759.37
2023-04-27T08:37:13.392Z,100761.49
2023-04-27T08:40:22.058Z,100763.15
2023-04-27T08:43:30.949Z,100764.63
2023-04-27T08:46:58.874Z,100770.58
2023-04-27T08:50:04.172Z,100771.91
2023-04-27T08:53:32.010Z,100767.64
2023-04-27T08:56:59.825Z,100767.39
2023-04-27T09:00:27.862Z,100774.05
2023-04-27T09:03:36.841Z,100767.77
2023-04-27T09:06:26.490Z,100766.54
2023-04-27T09:09:54.171Z,100760.80
2023-04-27T09:13:22.029Z,100760.54
2023-04-27T09:16:30.683Z,100758.08
2023-04-27T09:19:39.644Z,100762.22
2023-04-27T09:23:07.647Z,100759.11
2023-04-27T09:26:35.418Z,100754.47
2023-04-27T09:29:44.055Z,100756.20
2023-04-27T09:33:11.890Z,100757.16
2023-04-27T09:36:39.707Z,100754.34
2023-04-27T09:39:48.318Z,100756.98
2023-04-27T09:43:17.645Z,100753.16
2023-04-27T09:46:45.997Z,100757.11
2023-04-27T09:50:14.707Z,100758.45
2023-04-27T09:53:42.364Z,100753.96
2023-04-27T09:57:10.156Z,100754.17
2023-04-27T10:00:38.024Z,100751.44
2023-04-27T10:04:05.778Z,100756.01
2023-04-27T10:07:33.356Z,100755.95
2023-04-27T10:11:01.132Z,100758.66
2023-04-27T10:14:16.831Z,100751.44
2023-04-27T10:17:44.848Z,100754.70
2023-04-27T10:20:35.728Z,100754.98
2023-04-27T10:24:03.495Z,100757.33
2023-04-27T10:27:31.638Z,100757.77
2023-04-27T10:30:59.631Z,100757.07
2023-04-27T10:34:27.471Z,100760.39
2023-04-27T10:37:55.170Z,100765.17
2023-04-27T10:40:47.014Z,100762.08
2023-04-27T10:43:35.675Z,100765.21
2023-04-27T10:46:45.980Z,100768.27
2023-04-27T10:50:13.850Z,100759.46
2023-04-27T10:53:30.221Z,100763.90
2023-04-27T10:56:57.851Z,100764.44
2023-04-27T11:00:25.862Z,100761.11
2023-04-27T11:03:14.585Z,100762.70
2023-04-27T11:06:23.112Z,100767.34
2023-04-27T11:09:51.143Z,100764.80
2023-04-27T11:13:17.099Z,100763.77
2023-04-27T11:16:26.424Z,100761.33
2023-04-27T11:19:34.987Z,100760.95
2023-04-27T11:22:24.785Z,100752.92
2023-04-27T11:25:52.566Z,100756.56
2023-04-27T11:29:20.574Z,100764.11
2023-04-27T11:32:48.774Z,100766.55
2023-04-27T11:36:16.412Z,100773.55
2023-04-27T11:38:49.957Z,100776.48
2023-04-27T11:42:17.664Z,100766.54
2023-04-27T11:45:28.041Z,100768.23
2023-04-27T11:48:35.916Z,100766.55
2023-04-27T11:52:03.536Z,100763.52
2023-04-27T11:55:31.327Z,100766.77
2023-04-27T11:59:00.169Z,100771.85
2023-04-27T12:02:09.024Z,100766.58
2023-04-27T12:05:17.746Z,100768.50
2023-04-27T12:07:47.004Z,100765.20
2023-04-27T12:10:54.935Z,100762.94
2023-04-27T12:13:45.432Z,100767.95
2023-04-27T12:17:13.602Z,100774.46
2023-04-27T12:20:21.499Z,100773.14
2023-04-27T12:23:49.331Z,100774.67
2023-04-27T12:26:58.088Z,100780.93
2023-04-27T12:29:47.473Z,100782.73
2023-04-27T12:32:35.945Z,100784.52
2023-04-27T12:35:24.573Z,100788.23
2023-04-27T12:38:52.426Z,100790.33
2023-04-27T12:42:20.449Z,100792.79
2023-04-27T12:45:48.742Z,100791.20
2023-04-27T12:48:57.388Z,100787.41
2023-04-27T12:52:25.439Z,100787.92
2023-04-27T12:55:34.638Z,100788.68
2023-04-27T12:59:01.476Z,100780.65
2023-04-27T13:02:25.822Z,100783.55
2023-04-27T13:04:54.992Z,100783.91
2023-04-27T13:08:03.668Z,100788.59
2023-04-27T13:11:31.485Z,100787.73
2023-04-27T13:14:40.848Z,100790.30
2023-04-27T13:18:08.745Z,100789.11
2023-04-27T13:21:17.605Z,100791.34
2023-04-27T13:24:26.590Z,100789.55
2023-04-27T13:27:16.557Z,100790.16
2023-04-27T13:29:45.728Z,100787.16
2023-04-27T13:32:16.673Z,100787.21
2023-04-27T13:34:49.595Z,100789.98
2023-04-27T13:37:58.768Z,100789.98
2023-04-27T13:41:26.475Z,100793.61
2023-04-27T13:44:54.387Z,100791.52
2023-04-27T13:48:03.357Z,100791.94
2023-04-27T13:51:01.289Z,100790.26
2023-04-27T13:54:10.865Z,100786.38
2023-04-27T13:57:38.546Z,100782.94
2023-04-27T14:00:46.889Z,100786.96
2023-04-27T14:03:55.282Z,100793.77
2023-04-27T14:06:47.016Z,100791.95
2023-04-27T14:10:14.677Z,100797.52
2023-04-27T14:13:42.503Z,100805.76
2023-04-27T14:17:10.395Z,100804.41
2023-04-27T14:20:38.357Z,100799.34
2023-04-27T14:23:29.929Z,100800.27
2023-04-27T14:26:38.368Z,100802.80
2023-04-27T14:30:06.133Z,100811.86
2023-04-27T14:33:01.688Z,100805.92
2023-04-27T14:36:18.800Z,100801.39
2023-04-27T14:39:09.256Z,100803.44
2023-04-27T14:42:17.049Z,100800.95
2023-04-27T14:45:06.712Z,100805.58
2023-04-27T14:47:56.495Z,100812.69
2023-04-27T14:50:59.668Z,100823.42
2023-04-27T14:53:30.720Z,100822.53
2023-04-27T14:56:38.597Z,100828.38
2023-04-27T14:59:16.523Z,100827.55
2023-04-27T15:02:13.021Z,100827.23
2023-04-27T15:05:40.776Z,100831.69
2023-04-27T15:08:30.656Z,100831.48
2023-04-27T15:11:16.777Z,100826.50
2023-04-27T15:14:27.347Z,100825.63
2023-04-27T15:17:17.494Z,100825.18
2023-04-27T15:20:45.279Z,100825.48
2023-04-27T15:23:53.539Z,100823.36
2023-04-27T15:27:02.413Z,100823.40
2023-04-27T15:30:26.697Z,100821.61
2023-04-27T15:33:54.447Z,100823.80
2023-04-27T15:37:03.187Z,100822.91
2023-04-27T15:40:12.108Z,100822.00
2023-04-27T15:43:00.970Z,100821.50
2023-04-27T15:46:29.705Z,100820.25
2023-04-27T15:49:53.601Z,100822.79
2023-04-27T15:52:32.182Z,100823.36
2023-04-27T15:55:02.312Z,100830.16
2023-04-27T15:57:37.389Z,100831.70
2023-04-27T16:00:30.994Z,100838.02
2023-04-27T16:03:58.764Z,100834.72
2023-04-27T16:06:49.323Z,100838.65
2023-04-27T16:09:37.547Z,100841.07
2023-04-27T16:12:22.153Z,100840.09
2023-04-27T16:15:38.600Z,100841.48
2023-04-27T16:18:29.760Z,100839.23
2023-04-27T16:21:28.697Z,100846.08
2023-04-27T16:24:52.341Z,100842.79
2023-04-27T16:27:57.997Z,100842.95
2023-04-27T16:30:34.164Z,100844.97
2023-04-27T16:33:42.759Z,100844.47
2023-04-27T16:36:53.417Z,100848.29
2023-04-27T16:39:22.772Z,100850.54
2023-04-27T16:42:11.173Z,100858.48
2023-04-27T16:45:21.108Z,100861.09
2023-04-27T16:48:09.326Z,100855.85
2023-04-27T16:51:19.107Z,100856.11
2023-04-27T16:54:09.577Z,100856.93
2023-04-27T16:57:37.253Z,100857.26
2023-04-27T17:00:07.422Z,100863.30
2023-04-27T17:03:24.382Z,100866.30
2023-04-27T17:06:36.503Z,100869.39
2023-04-27T17:09:59.839Z,100870.53
2023-04-27T17:13:27.548Z,100871.02
2023-04-27T17:16:43.250Z,100872.66
2023-04-27T17:20:11.111Z,100875.95
2023-04-27T17:23:38.888Z,100882.34
2023-04-27T17:27:06.633Z,100881.77
2023-04-27T17:30:22.121Z,100889.77
2023-04-27T17:33:11.410Z,100888.73
2023-04-27T17:36:39.161Z,100888.98
2023-04-27T17:39:32.470Z,100893.45
2023-04-27T17:42:08.996Z,100896.09
2023-04-27T17:44:58.705Z,100900.19
2023-04-27T17:48:26.749Z,100905.76
2023-04-27T17:51:54.590Z,100911.81
2023-04-27T17:54:52.673Z,100914.86
2023-04-27T17:58:20.456Z,100913.38
2023-04-27T18:01:32.668Z,100919.05
2023-04-27T18:05:00.390Z,100924.01
2023-04-27T18:08:28.198Z,100931.79
2023-04-27T18:11:55.932Z,100927.10
2023-04-27T18:15:23.868Z,100934.00
2023-04-27T18:18:51.600Z,100935.86
2023-04-27T18:22:19.476Z,100942.92
2023-04-27T18:25:27.336Z,100946.33
2023-04-27T18:28:36.046Z,100944.98
2023-04-27T18:31:45.018Z,100950.02
2023-04-27T18:34:38.668Z,100953.53
2023-04-27T18:37:50.705Z,100958.91
2023-04-27T18:40:22.047Z,100958.52
2023-04-27T18:43:18.653Z,100964.02
2023-04-27T18:46:27.810Z,100969.53
2023-04-27T18:49:17.687Z,100973.41
2023-04-27T18:52:40.917Z,100973.95
2023-04-27T18:55:56.732Z,100975.37
2023-04-27T18:59:24.398Z,100981.10
2023-04-27T19:02:34.150Z,100982.59
2023-04-27T19:06:01.976Z,100982.52
2023-04-27T19:08:52.688Z,100981.80
2023-04-27T19:12:20.397Z,100980.89
2023-04-27T19:15:48.203Z,100982.28
2023-04-27T19:19:16.276Z,100981.94
2023-04-27T19:22:31.747Z,100983.89
2023-04-27T19:26:09.596Z,100988.75
2023-04-27T19:29:27.144Z,100986.36
2023-04-27T19:32:34.882Z,100987.64
2023-04-27T19:36:02.704Z,100989.25
2023-04-27T19:39:31.363Z,100986.55
2023-04-27T19:42:54.316Z,100986.95
2023-04-27T19:46:18.581Z,100985.60
2023-04-27T19:49:46.414Z,100980.64
2023-04-27T19:53:14.310Z,100979.95
2023-04-27T19:56:33.622Z,100981.33
2023-04-27T19:59:45.097Z,100985.00
2023-04-27T20:02:54.163Z,100985.52
2023-04-27T20:06:03.023Z,100985.27
2023-04-27T20:09:11.574Z,100983.30
2023-04-27T20:12:54.457Z,100984.34
2023-04-27T20:16:06.954Z,100982.39
2023-04-27T20:19:34.778Z,100982.39
2023-04-27T20:22:25.719Z,100984.63
2023-04-27T20:25:35.433Z,100990.00
2023-04-27T20:28:44.315Z,100992.54
2023-04-27T20:32:09.949Z,100994.08
2023-04-27T20:35:06.832Z,100994.65
2023-04-27T20:38:34.737Z,100999.05
2023-04-27T20:42:02.615Z,100995.07
2023-04-27T20:45:18.205Z,100994.19
2023-04-27T20:48:46.093Z,100990.78
2023-04-27T20:52:10.351Z,100987.45
2023-04-27T20:55:38.157Z,100987.30
2023-04-27T20:59:07.311Z,100983.17
2023-04-27T21:02:02.308Z,100982.40
2023-04-27T21:05:31.651Z,100986.77
2023-04-27T21:08:57.712Z,100987.00
2023-04-27T21:12:06.682Z,100989.67
2023-04-27T21:15:15.331Z,100994.95
2023-04-27T21:21:47.573Z,100996.33
2023-04-27T21:24:59.470Z,100997.02
2023-04-27T21:28:09.216Z,100997.80
2023-04-27T21:31:37.160Z,101001.08
2023-04-27T21:34:46.833Z,101001.94
2023-04-27T21:38:14.620Z,100999.76
2023-04-27T21:41:26.203Z,101007.51
2023-04-27T21:44:37.923Z,101002.11
2023-04-27T21:47:35.738Z,101006.45
2023-04-27T21:50:51.028Z,101003.71
2023-04-27T21:54:00.916Z,101003.34
2023-04-27T21:57:28.851Z,101007.03
2023-04-27T22:00:38.600Z,101004.11
2023-04-27T22:03:47.596Z,101006.53
2023-04-27T22:06:57.163Z,101007.69
2023-04-27T22:10:25.464Z,101004.66
2023-04-27T22:13:34.094Z,101008.27
2023-04-27T22:17:02.724Z,101012.08
2023-04-27T22:20:17.082Z,101011.00
2023-04-27T22:23:45.389Z,101011.18
2023-04-27T22:27:13.336Z,101011.20
2023-04-27T22:30:23.025Z,101011.52
2023-04-27T22:33:50.948Z,101013.19
2023-04-27T22:37:07.146Z,101012.48
2023-04-27T22:40:15.563Z,101018.78
2023-04-27T22:46:56.785Z,101019.69
2023-04-27T22:49:46.884Z,101021.57
2023-04-27T22:52:58.515Z,101019.94
2023-04-27T22:56:10.866Z,101020.17
2023-04-27T22:59:39.160Z,101023.80
2023-04-27T23:03:07.568Z,101021.87
2023-04-27T23:06:35.577Z,101021.08
2023-04-27T23:10:03.219Z,101021.22
2023-04-27T23:13:11.703Z,101023.89
2023-04-27T23:16:35.925Z,101023.54
2023-04-27T23:20:04.153Z,101024.92
2023-04-27T23:23:31.380Z,101031.02
2023-04-27T23:26:54.799Z,101026.86
2023-04-27T23:30:22.887Z,101029.25
2023-04-27T23:33:50.493Z,101031.23
2023-04-27T23:37:18.623Z,101029.54
2023-04-27T23:40:46.316Z,101033.93
2023-04-27T23:44:10.221Z,101033.45
2023-04-27T23:47:08.979Z,101032.15
2023-04-27T23:50:18.843Z,101034.33
2023-04-27T23:53:46.459Z,101031.35
2023-04-27T23:57:14.263Z,101033.95
